Terminal Aerodrome Forecast
Issued by NWS Mobile, AL

Current Version | Previous Version | Text Only | Print | Product List | Glossary On
Versions: 1 2 3 4 5 6 7 8 9 10 11 12 13 14 15 16 17 18 19 20 21 22 23 24 25 26 27 28 29 30 31 32 33 34 35 36 37 38 39 40 41 42 43 44 45
000
FTUS44 KMOB 211500 AAA
TAFMOB
TAF AMD
KMOB 211518Z 2115/2212 06007KT P6SM OVC015
      TEMPO 2115/2118 4SM BR OVC009
     FM220600 08004KT 4SM BR OVC007
     FM220900 10003KT 2SM BR OVC004=

USA.gov is the U.S. government's official web portal to all federal, state and local government web resources and services.